createdAt,value
2022-10-21T00:00:58.424Z,101024.16
2022-10-21T00:03:28.825Z,101060.91
2022-10-21T00:05:56.023Z,101174.84
2022-10-21T00:08:22.971Z,100879.66
2022-10-21T00:10:53.631Z,101136.47
2022-10-21T00:13:20.606Z,101176.00
2022-10-21T00:16:00.442Z,101117.06
2022-10-21T00:18:30.395Z,101161.78
2022-10-21T00:20:57.096Z,101059.31
2022-10-21T00:23:23.748Z,101114.69
2022-10-21T00:26:01.555Z,101162.78
2022-10-21T00:28:31.441Z,101135.97
2022-10-21T00:31:00.344Z,101064.66
2022-10-21T00:33:30.620Z,101155.47
2022-10-21T00:35:59.556Z,101099.22
2022-10-21T00:38:29.023Z,100959.16
2022-10-21T00:40:55.631Z,101151.22
2022-10-21T00:43:25.671Z,101148.94
2022-10-21T00:46:05.324Z,101031.03
2022-10-21T00:48:38.979Z,101131.59
2022-10-21T00:51:11.396Z,101129.56
2022-10-21T00:53:41.225Z,100965.03
2022-10-21T00:56:16.274Z,101014.69
2022-10-21T00:58:43.870Z,101082.38
2022-10-21T01:01:15.364Z,101059.44
2022-10-21T01:03:49.444Z,101051.41
2022-10-21T01:06:19.391Z,101085.88
2022-10-21T01:08:46.131Z,101029.72
2022-10-21T01:11:18.304Z,101052.66
2022-10-21T01:14:20.254Z,101119.59
2022-10-21T01:17:20.721Z,101118.34
2022-10-21T01:19:55.105Z,101118.28
2022-10-21T01:22:43.039Z,101120.34
2022-10-21T01:25:32.819Z,101040.66
2022-10-21T01:28:08.207Z,101119.88
2022-10-21T01:31:13.101Z,101120.84
2022-10-21T01:33:42.233Z,100963.63
2022-10-21T01:36:13.232Z,100955.41
2022-10-21T01:38:48.908Z,101079.28
2022-10-21T01:41:24.149Z,101107.84
2022-10-21T01:44:05.839Z,101101.00
2022-10-21T01:47:00.949Z,101078.22
2022-10-21T01:49:37.122Z,101088.72
2022-10-21T01:52:09.926Z,100981.16
2022-10-21T01:54:42.042Z,101077.31
2022-10-21T01:57:09.138Z,100978.13
2022-10-21T01:59:39.976Z,100972.69
2022-10-21T02:02:07.950Z,101075.44
2022-10-21T02:04:36.399Z,101091.41
2022-10-21T02:07:03.412Z,101007.28
2022-10-21T02:12:06.984Z,101047.25
2022-10-21T02:14:37.783Z,101070.19
2022-10-21T02:17:06.371Z,101091.28
2022-10-21T02:19:33.213Z,101095.94
2022-10-21T02:22:04.137Z,101091.84
2022-10-21T02:25:10.587Z,101088.53
2022-10-21T02:27:37.294Z,101016.44
2022-10-21T02:30:06.703Z,101048.75
2022-10-21T02:32:54.285Z,101100.66
2022-10-21T02:35:29.171Z,101098.88
2022-10-21T02:38:17.065Z,100961.44
2022-10-21T02:40:49.543Z,101114.06
2022-10-21T02:43:18.479Z,101096.63
2022-10-21T02:45:48.964Z,101108.47
2022-10-21T02:48:15.676Z,101105.78
2022-10-21T02:50:44.739Z,101076.16
2022-10-21T02:53:11.816Z,101015.78
2022-10-21T02:55:38.494Z,100977.34
2022-10-21T02:58:08.038Z,101094.75
2022-10-21T03:00:36.979Z,101011.38
2022-10-21T03:03:03.721Z,101076.44
2022-10-21T03:08:04.679Z,100980.13
2022-10-21T03:10:31.350Z,101023.31
2022-10-21T03:13:03.059Z,100974.84
2022-10-21T03:15:30.001Z,101104.97
2022-10-21T03:17:59.199Z,101071.75
2022-10-21T03:20:28.248Z,101054.06
2022-10-21T03:22:57.635Z,100900.19
2022-10-21T03:25:24.357Z,101026.81
2022-10-21T03:27:53.456Z,101010.28
2022-10-21T03:30:20.168Z,100973.91
2022-10-21T03:32:49.106Z,101101.00
2022-10-21T03:35:15.973Z,101014.13
2022-10-21T03:37:42.811Z,101054.63
2022-10-21T03:40:13.364Z,100941.19
2022-10-21T03:42:40.660Z,101071.53
2022-10-21T03:45:08.282Z,101024.63
2022-10-21T03:47:35.043Z,101011.09
2022-10-21T03:50:06.393Z,100951.41
2022-10-21T03:52:35.904Z,101005.56
2022-10-21T03:55:02.774Z,101050.34
2022-10-21T03:57:29.443Z,100984.44
2022-10-21T03:59:58.496Z,101071.47
2022-10-21T04:02:25.227Z,100957.66
2022-10-21T04:04:51.968Z,101056.56
2022-10-21T04:07:18.677Z,100975.69
2022-10-21T04:09:45.753Z,101063.28
2022-10-21T04:12:14.714Z,100976.44
2022-10-21T04:14:44.014Z,100918.69
2022-10-21T04:17:10.717Z,101041.63
2022-10-21T04:19:40.051Z,100992.78
2022-10-21T04:22:09.571Z,101056.41
2022-10-21T04:24:42.331Z,101021.06
2022-10-21T04:27:15.739Z,100984.88
2022-10-21T04:29:45.277Z,100802.97
2022-10-21T04:32:16.537Z,101001.97
2022-10-21T04:34:46.285Z,101044.66
2022-10-21T04:37:15.763Z,100939.06
2022-10-21T04:39:42.971Z,100936.66
2022-10-21T04:42:09.856Z,101008.72
2022-10-21T04:44:45.511Z,100903.66
2022-10-21T04:47:18.645Z,101028.38
2022-10-21T04:49:45.372Z,100906.78
2022-10-21T04:52:12.171Z,100940.69
2022-10-21T04:54:48.831Z,100983.00
2022-10-21T04:57:20.668Z,100619.84
2022-10-21T04:59:49.815Z,101021.59
2022-10-21T05:02:22.946Z,100942.88
2022-10-21T05:04:52.247Z,100935.16
2022-10-21T05:07:21.128Z,100964.41
2022-10-21T05:09:47.915Z,101020.72
2022-10-21T05:12:16.872Z,100980.16
2022-10-21T05:14:43.686Z,100988.88
2022-10-21T05:17:10.624Z,100973.56
2022-10-21T05:19:37.340Z,100957.84
2022-10-21T05:22:04.360Z,100963.59
2022-10-21T05:24:33.324Z,100562.19
2022-10-21T05:27:03.333Z,100713.88
2022-10-21T05:29:32.160Z,100941.19
2022-10-21T05:31:58.927Z,100990.72
2022-10-21T05:34:28.041Z,100909.56
2022-10-21T05:36:54.770Z,100929.09
2022-10-21T05:39:21.440Z,100984.50
2022-10-21T05:41:48.345Z,101018.06
2022-10-21T05:44:17.394Z,100984.88
2022-10-21T05:46:44.171Z,100865.28
2022-10-21T05:49:10.880Z,100922.44
2022-10-21T05:51:39.784Z,100994.91
2022-10-21T05:54:08.752Z,100938.69
2022-10-21T05:56:35.503Z,100791.72
2022-10-21T05:59:07.849Z,100937.47
2022-10-21T06:01:39.657Z,100948.69
2022-10-21T06:04:07.020Z,101028.34
2022-10-21T06:06:33.738Z,101042.59
2022-10-21T06:09:00.846Z,100929.44
2022-10-21T06:11:27.542Z,101028.81
2022-10-21T06:13:59.553Z,101071.19
2022-10-21T06:16:28.740Z,101071.91
2022-10-21T06:18:55.538Z,101012.25
2022-10-21T06:21:24.606Z,100978.97
2022-10-21T06:23:53.783Z,101055.09
2022-10-21T06:26:23.377Z,100993.31
2022-10-21T06:28:52.579Z,100898.47
2022-10-21T06:31:26.069Z,100950.63
2022-10-21T06:33:55.786Z,100968.72
2022-10-21T06:36:22.491Z,101059.13
2022-10-21T06:38:49.270Z,100967.66
2022-10-21T06:41:18.742Z,101055.84
2022-10-21T06:43:47.814Z,101079.41
2022-10-21T06:46:17.704Z,100982.13
2022-10-21T06:48:44.388Z,100983.09
2022-10-21T06:51:15.449Z,101071.00
2022-10-21T06:53:43.235Z,100972.31
2022-10-21T06:56:13.510Z,100959.88
2022-10-21T06:58:49.173Z,100948.59
2022-10-21T07:01:35.238Z,101052.19
2022-10-21T07:04:09.789Z,101043.97
2022-10-21T07:06:36.927Z,101030.59
2022-10-21T07:09:06.513Z,101028.53
2022-10-21T07:11:33.315Z,100954.38
2022-10-21T07:14:00.809Z,101029.78
2022-10-21T07:16:29.874Z,100989.88
2022-10-21T07:18:59.751Z,100892.34
2022-10-21T07:21:31.311Z,101047.66
2022-10-21T07:23:59.484Z,101022.03
2022-10-21T07:26:30.783Z,101050.19
2022-10-21T07:28:59.627Z,101054.28
2022-10-21T07:31:32.090Z,101013.06
2022-10-21T07:34:00.403Z,101060.53
2022-10-21T07:36:33.002Z,100905.91
2022-10-21T07:39:03.629Z,101054.78
2022-10-21T07:41:39.605Z,101051.72
2022-10-21T07:44:09.776Z,100981.75
2022-10-21T07:46:38.909Z,101063.78
2022-10-21T07:49:08.904Z,100893.09
2022-10-21T07:51:38.168Z,101009.41
2022-10-21T07:54:05.641Z,101040.53
2022-10-21T07:56:34.949Z,101029.19
2022-10-21T07:59:11.690Z,101027.78
2022-10-21T08:01:40.541Z,100914.88
2022-10-21T08:04:07.393Z,100934.94
2022-10-21T08:06:34.408Z,100896.09
2022-10-21T08:09:04.471Z,100923.88
2022-10-21T08:11:34.971Z,100900.28
2022-10-21T08:14:10.862Z,100995.31
2022-10-21T08:16:38.058Z,100966.03
2022-10-21T08:19:08.314Z,101001.69
2022-10-21T08:21:37.402Z,100992.47
2022-10-21T08:24:09.171Z,100880.41
2022-10-21T08:26:36.159Z,100990.75
2022-10-21T08:29:03.979Z,100879.03
2022-10-21T08:31:31.568Z,100638.66
2022-10-21T08:34:01.946Z,100679.75
2022-10-21T08:36:29.697Z,100795.00
2022-10-21T08:38:56.853Z,100812.81
2022-10-21T08:41:33.144Z,100982.75
2022-10-21T08:44:08.796Z,100974.53
2022-10-21T08:46:48.084Z,100842.06
2022-10-21T08:49:30.820Z,100846.53
2022-10-21T08:52:37.931Z,100618.16
2022-10-21T08:55:14.914Z,100761.09
2022-10-21T08:57:42.157Z,100614.38
2022-10-21T09:00:19.281Z,100917.41
2022-10-21T09:03:10.770Z,100801.69
2022-10-21T09:06:10.610Z,100740.25
2022-10-21T09:09:08.300Z,100741.09
2022-10-21T09:12:03.642Z,100924.44
2022-10-21T09:14:51.784Z,100935.53
2022-10-21T09:17:21.451Z,100929.00
2022-10-21T09:20:09.546Z,100920.50
2022-10-21T09:22:48.393Z,100920.78
2022-10-21T09:25:18.480Z,100922.66
2022-10-21T09:27:55.556Z,100833.66
2022-10-21T09:30:23.733Z,100829.41
2022-10-21T09:32:55.840Z,100908.25
2022-10-21T09:35:39.499Z,100900.63
2022-10-21T09:38:21.083Z,100897.28
2022-10-21T09:40:50.149Z,100832.03
2022-10-21T09:43:18.956Z,100880.13
2022-10-21T09:45:46.457Z,100822.06
2022-10-21T09:48:20.446Z,100876.09
2022-10-21T09:50:50.250Z,100722.66
2022-10-21T09:53:26.651Z,100812.59
2022-10-21T09:56:02.407Z,100755.97
2022-10-21T09:58:40.138Z,100865.94
2022-10-21T10:01:06.836Z,100799.59
2022-10-21T10:03:37.367Z,100773.91
2022-10-21T10:06:05.567Z,100749.38
2022-10-21T10:08:39.805Z,100846.56
2022-10-21T10:11:11.893Z,100851.88
2022-10-21T10:13:56.315Z,100819.06
2022-10-21T10:16:22.995Z,100845.50
2022-10-21T10:18:51.872Z,100815.66
2022-10-21T10:21:22.664Z,100834.34
2022-10-21T10:23:56.291Z,100836.22
2022-10-21T10:26:28.589Z,100834.28
2022-10-21T10:29:09.670Z,100749.91
2022-10-21T10:31:39.617Z,100804.84
2022-10-21T10:34:08.074Z,100736.44
2022-10-21T10:36:39.090Z,100631.31
2022-10-21T10:39:09.264Z,100759.88
2022-10-21T10:41:40.157Z,100808.63
2022-10-21T10:44:16.675Z,100814.06
2022-10-21T10:49:22.806Z,100767.00
2022-10-21T10:52:17.946Z,100597.44
2022-10-21T10:54:44.688Z,100634.53
2022-10-21T10:57:16.309Z,100770.19
2022-10-21T10:59:51.362Z,100713.97
2022-10-21T11:02:28.033Z,100699.22
2022-10-21T11:05:26.929Z,100752.09
2022-10-21T11:07:58.137Z,100653.47
2022-10-21T11:10:36.510Z,100695.69
2022-10-21T11:13:05.988Z,100637.31
2022-10-21T11:15:49.721Z,100581.84
2022-10-21T11:18:37.463Z,100734.16
2022-10-21T11:21:14.290Z,100698.94
2022-10-21T11:24:05.919Z,100740.28
2022-10-21T11:26:45.954Z,100657.53
2022-10-21T11:29:55.815Z,100740.16
2022-10-21T11:32:49.853Z,100740.13
2022-10-21T11:35:45.201Z,100727.69
2022-10-21T11:38:16.133Z,100721.50
2022-10-21T11:40:50.727Z,100701.28
2022-10-21T11:43:26.361Z,100701.19
2022-10-21T11:46:14.112Z,100717.75
2022-10-21T11:48:47.028Z,100693.28
2022-10-21T11:51:19.580Z,100625.47
2022-10-21T11:54:26.017Z,100690.69
2022-10-21T11:57:04.779Z,100646.66
2022-10-21T11:59:54.093Z,100677.59
2022-10-21T12:02:42.762Z,100546.38
2022-10-21T12:05:16.087Z,100671.31
2022-10-21T12:08:06.169Z,100605.34
2022-10-21T12:10:51.983Z,100666.91
2022-10-21T12:13:21.561Z,100666.09
2022-10-21T12:15:54.445Z,100603.59
2022-10-21T12:18:24.007Z,100661.72
2022-10-21T12:20:53.545Z,100664.31
2022-10-21T12:23:22.509Z,100614.06
2022-10-21T12:26:22.608Z,100659.97
2022-10-21T12:29:01.387Z,100657.31
2022-10-21T12:31:50.274Z,100655.50
2022-10-21T12:34:19.759Z,100660.66
2022-10-21T12:36:50.909Z,100610.44
2022-10-21T12:39:50.473Z,100648.25
2022-10-21T12:42:28.692Z,100650.75
2022-10-21T12:44:55.414Z,100661.22
2022-10-21T12:47:22.060Z,100623.31
2022-10-21T12:50:14.827Z,100467.50
2022-10-21T12:52:42.309Z,100434.78
2022-10-21T12:55:23.564Z,100551.00
2022-10-21T12:57:59.203Z,100646.78
2022-10-21T13:00:31.430Z,100638.06
2022-10-21T13:03:12.845Z,100628.38
2022-10-21T13:05:39.502Z,100632.63
2022-10-21T13:08:21.951Z,100628.97
2022-10-21T13:11:06.822Z,100599.91
2022-10-21T13:13:38.533Z,100618.56
2022-10-21T13:16:20.203Z,100626.41
2022-10-21T13:19:16.191Z,100596.53
2022-10-21T13:21:44.094Z,100617.69
2022-10-21T13:24:15.820Z,100612.50
2022-10-21T13:26:48.029Z,100598.53
2022-10-21T13:29:37.524Z,100601.16
2022-10-21T13:32:19.474Z,100540.41
2022-10-21T13:35:14.536Z,100597.63
2022-10-21T13:37:43.457Z,100577.34
2022-10-21T13:40:18.743Z,100466.56
2022-10-21T13:42:49.681Z,100572.13
2022-10-21T13:45:31.719Z,100592.44
2022-10-21T13:48:15.326Z,100574.78
2022-10-21T13:50:45.037Z,100582.75
2022-10-21T13:53:17.794Z,100598.63
2022-10-21T13:56:43.328Z,100589.09
2022-10-21T13:59:28.896Z,100468.63
2022-10-21T14:01:58.886Z,100406.09
2022-10-21T14:04:40.247Z,100586.47
2022-10-21T14:07:17.182Z,100497.53
2022-10-21T14:09:57.010Z,100575.81
2022-10-21T14:12:29.756Z,100581.91
2022-10-21T14:15:04.091Z,100428.88
2022-10-21T14:17:32.410Z,100440.31
2022-10-21T14:20:06.250Z,100565.34
2022-10-21T14:22:33.224Z,100411.38
2022-10-21T14:25:04.299Z,100414.88
2022-10-21T14:27:35.079Z,100418.25
2022-10-21T14:30:04.399Z,100559.97
2022-10-21T14:32:33.339Z,100559.09
2022-10-21T14:35:09.428Z,100557.34
2022-10-21T14:37:49.176Z,100551.19
2022-10-21T14:40:37.165Z,100551.13
2022-10-21T14:43:18.536Z,100466.53
2022-10-21T14:45:48.207Z,100573.56
2022-10-21T14:48:32.490Z,100457.59
2022-10-21T14:51:01.872Z,100404.63
2022-10-21T14:53:34.770Z,100350.06
2022-10-21T14:56:04.495Z,100554.03
2022-10-21T14:58:38.272Z,100471.25
2022-10-21T15:01:19.081Z,100471.09
2022-10-21T15:03:57.281Z,100555.56
2022-10-21T15:06:28.242Z,100557.25
2022-10-21T15:09:00.319Z,100549.34
2022-10-21T15:11:29.991Z,100542.25
2022-10-21T15:14:08.229Z,100537.69
2022-10-21T15:19:08.798Z,100354.28
2022-10-21T15:22:02.103Z,100310.47
2022-10-21T15:24:41.960Z,100518.88
2022-10-21T15:27:42.133Z,100484.53
2022-10-21T15:30:20.724Z,100495.13
2022-10-21T15:32:49.157Z,100346.09
2022-10-21T15:35:20.811Z,100527.31
2022-10-21T15:37:53.787Z,100472.44
2022-10-21T15:40:21.637Z,100526.03
2022-10-21T15:42:48.654Z,100436.91
2022-10-21T15:45:16.029Z,100523.34
2022-10-21T15:47:42.722Z,100419.31
2022-10-21T15:50:22.844Z,100525.09
2022-10-21T15:52:49.610Z,100397.28
2022-10-21T15:55:18.584Z,100367.31
2022-10-21T15:57:48.007Z,100448.22
2022-10-21T16:00:19.232Z,100476.28
2022-10-21T16:02:49.656Z,100496.53
2022-10-21T16:05:16.761Z,100517.50
2022-10-21T16:07:44.373Z,100450.97
2022-10-21T16:10:20.936Z,100515.31
2022-10-21T16:12:57.419Z,100421.81
2022-10-21T16:15:25.007Z,100498.91
2022-10-21T16:17:56.125Z,100513.84
2022-10-21T16:20:25.833Z,100442.13
2022-10-21T16:22:52.896Z,100439.09
2022-10-21T16:25:22.119Z,100542.22
2022-10-21T16:27:56.270Z,100462.63
2022-10-21T16:30:33.848Z,100443.84
2022-10-21T16:33:02.751Z,100375.75
2022-10-21T16:35:34.243Z,100335.25
2022-10-21T16:38:00.946Z,100560.56
2022-10-21T16:40:35.380Z,100509.66
2022-10-21T16:43:04.472Z,100377.41
2022-10-21T16:45:35.043Z,100459.97
2022-10-21T16:48:04.599Z,100555.72
2022-10-21T16:50:39.789Z,100320.47
2022-10-21T16:53:16.929Z,100372.69
2022-10-21T16:55:43.875Z,100385.75
2022-10-21T16:58:13.067Z,100513.59
2022-10-21T17:00:41.155Z,100508.00
2022-10-21T17:03:11.394Z,100346.56
2022-10-21T17:05:42.641Z,100543.09
2022-10-21T17:08:09.719Z,100441.28
2022-10-21T17:10:36.528Z,100430.22
2022-10-21T17:13:03.240Z,100539.66
2022-10-21T17:15:29.962Z,100532.88
2022-10-21T17:17:56.648Z,100395.38
2022-10-21T17:20:23.391Z,100317.94
2022-10-21T17:22:50.106Z,100467.69
2022-10-21T17:25:17.470Z,100419.00
2022-10-21T17:27:44.485Z,100482.41
2022-10-21T17:30:12.382Z,100547.63
2022-10-21T17:32:39.135Z,100486.75
2022-10-21T17:35:11.371Z,100396.47
2022-10-21T17:37:38.362Z,100525.00
2022-10-21T17:40:08.399Z,100543.69
2022-10-21T17:42:35.256Z,100484.50
2022-10-21T17:45:03.881Z,100470.44
2022-10-21T17:47:30.841Z,100430.94
2022-10-21T17:49:57.525Z,100323.09
2022-10-21T17:52:24.697Z,100530.50
2022-10-21T17:54:55.715Z,100402.78
2022-10-21T17:57:27.339Z,100384.78
2022-10-21T17:59:56.087Z,100324.22
2022-10-21T18:02:33.450Z,100482.47
2022-10-21T18:05:00.811Z,100429.97
2022-10-21T18:07:31.034Z,100532.78
2022-10-21T18:10:02.920Z,100533.72
2022-10-21T18:12:34.387Z,100524.19
2022-10-21T18:15:01.547Z,100452.03
2022-10-21T18:17:34.626Z,100402.78
2022-10-21T18:20:01.394Z,100509.47
2022-10-21T18:22:28.068Z,100423.06
2022-10-21T18:24:54.809Z,100366.25
2022-10-21T18:27:21.525Z,100400.72
2022-10-21T18:29:50.376Z,100384.84
2022-10-21T18:32:17.051Z,100511.09
2022-10-21T18:34:46.325Z,100531.00
2022-10-21T18:37:15.425Z,100489.78
2022-10-21T18:39:44.339Z,100364.84
2022-10-21T18:42:11.013Z,100379.09
2022-10-21T18:44:37.846Z,100396.50
2022-10-21T18:47:08.067Z,100332.41
2022-10-21T18:49:34.867Z,100492.22
2022-10-21T18:52:04.128Z,100390.03
2022-10-21T18:54:33.137Z,100377.69
2022-10-21T18:57:02.474Z,100293.06
2022-10-21T18:59:29.244Z,100473.81
2022-10-21T19:01:56.054Z,100390.00
2022-10-21T19:04:22.848Z,100389.09
2022-10-21T19:06:52.887Z,100353.47
2022-10-21T19:09:25.790Z,100352.31
2022-10-21T19:11:53.855Z,100359.91
2022-10-21T19:14:23.428Z,100393.81
2022-10-21T19:16:52.459Z,100330.28
2022-10-21T19:19:19.740Z,100283.56
2022-10-21T19:21:48.830Z,100377.16
2022-10-21T19:24:15.576Z,100366.50
2022-10-21T19:26:46.371Z,100460.03
2022-10-21T19:29:18.147Z,100464.19
2022-10-21T19:31:48.402Z,100415.91
2022-10-21T19:34:22.931Z,100459.91
2022-10-21T19:36:54.479Z,100465.16
2022-10-21T19:39:26.014Z,100340.94
2022-10-21T19:41:55.918Z,100423.16
2022-10-21T19:44:24.840Z,100382.47
2022-10-21T19:46:53.738Z,100371.06
2022-10-21T19:49:20.707Z,100447.59
2022-10-21T19:51:49.888Z,100253.81
2022-10-21T19:54:16.610Z,100289.44
2022-10-21T19:56:47.880Z,100283.19
2022-10-21T20:01:44.994Z,100391.88
2022-10-21T20:04:15.730Z,100273.06
2022-10-21T20:06:48.000Z,100409.22
2022-10-21T20:09:16.949Z,100274.47
2022-10-21T20:11:43.780Z,100350.84
2022-10-21T20:14:24.504Z,100291.41
2022-10-21T20:16:53.512Z,100429.28
2022-10-21T20:19:20.569Z,100448.09
2022-10-21T20:21:48.971Z,100353.00
2022-10-21T20:24:18.229Z,100250.63
2022-10-21T20:26:49.053Z,100226.41
2022-10-21T20:29:20.897Z,100327.31
2022-10-21T20:31:48.995Z,100358.34
2022-10-21T20:34:15.757Z,100339.81
2022-10-21T20:36:42.528Z,100405.09
2022-10-21T20:39:11.876Z,100459.97
2022-10-21T20:41:38.700Z,100269.13
2022-10-21T20:44:10.464Z,100352.06
2022-10-21T20:46:37.363Z,100389.16
2022-10-21T20:49:05.757Z,100450.22
2022-10-21T20:51:36.490Z,100343.00
2022-10-21T20:54:12.317Z,100327.56
2022-10-21T20:56:40.166Z,100445.16
2022-10-21T20:59:10.484Z,100448.00
2022-10-21T21:01:41.829Z,100449.06
2022-10-21T21:04:12.393Z,100334.72
2022-10-21T21:06:46.788Z,100363.97
2022-10-21T21:09:33.567Z,100458.09
2022-10-21T21:12:03.464Z,100462.53
2022-10-21T21:14:30.876Z,100362.50
2022-10-21T21:17:00.015Z,100288.88
2022-10-21T21:19:27.091Z,100251.91
2022-10-21T21:21:56.231Z,100444.75
2022-10-21T21:24:25.384Z,100339.22
2022-10-21T21:26:54.411Z,100249.41
2022-10-21T21:29:21.064Z,100340.09
2022-10-21T21:31:47.775Z,100300.31
2022-10-21T21:34:14.507Z,100278.13
2022-10-21T21:36:41.182Z,100324.66
2022-10-21T21:39:08.797Z,100446.44
2022-10-21T21:41:38.146Z,100265.34
2022-10-21T21:44:05.448Z,100243.44
2022-10-21T21:46:32.142Z,100288.59
2022-10-21T21:49:05.520Z,100363.66
2022-10-21T21:51:36.370Z,100270.91
2022-10-21T21:54:04.669Z,100279.97
2022-10-21T21:56:35.970Z,100410.13
2022-10-21T21:59:04.956Z,100197.22
2022-10-21T22:01:33.854Z,100388.13
2022-10-21T22:04:03.419Z,100072.59
2022-10-21T22:06:34.316Z,100255.69
2022-10-21T22:09:01.703Z,100297.72
2022-10-21T22:11:31.074Z,100319.84
2022-10-21T22:14:00.588Z,100214.38
2022-10-21T22:16:30.304Z,100333.19
2022-10-21T22:18:59.864Z,100411.56
2022-10-21T22:21:30.733Z,100396.84
2022-10-21T22:23:58.079Z,100208.22
2022-10-21T22:26:30.021Z,100293.72
2022-10-21T22:29:04.087Z,100411.31
2022-10-21T22:31:31.092Z,100419.44
2022-10-21T22:34:01.351Z,100425.41
2022-10-21T22:36:32.982Z,100311.25
2022-10-21T22:38:59.823Z,100244.41
2022-10-21T22:41:27.075Z,100408.06
2022-10-21T22:43:53.823Z,100275.03
2022-10-21T22:46:34.170Z,100265.72
2022-10-21T22:49:05.006Z,100288.53
2022-10-21T22:51:34.961Z,100260.44
2022-10-21T22:54:15.114Z,100300.91
2022-10-21T22:56:46.120Z,100239.06
2022-10-21T22:59:13.228Z,100354.34
2022-10-21T23:01:42.201Z,100272.44
2022-10-21T23:04:11.406Z,100331.00
2022-10-21T23:06:38.175Z,100322.47
2022-10-21T23:09:05.561Z,100332.75
2022-10-21T23:11:34.887Z,100314.28
2022-10-21T23:14:07.804Z,100324.69
2022-10-21T23:16:38.304Z,100274.50
2022-10-21T23:19:07.923Z,100400.50
2022-10-21T23:21:38.236Z,100329.56
2022-10-21T23:24:05.871Z,100175.47
2022-10-21T23:26:32.703Z,100384.97
2022-10-21T23:28:59.457Z,100244.97
2022-10-21T23:31:28.480Z,100280.19
2022-10-21T23:33:55.240Z,100345.50
2022-10-21T23:36:24.144Z,100222.25
2022-10-21T23:38:56.594Z,100205.53
2022-10-21T23:41:23.679Z,100394.56
2022-10-21T23:43:52.581Z,100279.22
2022-10-21T23:46:19.496Z,100280.63
2022-10-21T23:48:48.389Z,100261.28
2022-10-21T23:51:15.100Z,100375.81
2022-10-21T23:53:44.068Z,100244.81
2022-10-21T23:56:10.802Z,100229.91
2022-10-21T23:58:40.402Z,100388.69
